Brentford, United Kingdom
Current Conditions -  °F | °C
As of 12:20 PM on Tuesday 27 Jan 2015 (Local Time) from EGLL Reporting Station
Few Clouds Few Clouds  
Wind Chill: 43°   Ceiling: Unl
Heat Index: 48°   Visibility: 6mi
Dew Point: 39°   Wind: 13mph
Humidity: 71%   Direction: 280°W
Pressure: 30.33"   Gusts: NA
Location:  51.48°N, 0.3°W
Report Text: EGLL 271220Z 28011KT 9999 FEW020 09/04 Q1027 NOSIG
Loading
Personal Weather Stations






























Interactive Weather Map New forecast layout! Learn more

10-Day Weather Forecast

Advertisements
Track Severe Weather on mobile